createdAt,value
2023-04-22T00:01:09.101Z,2.77
2023-04-22T00:03:42.790Z,3.27
2023-04-22T00:06:15.143Z,3.08
2023-04-22T00:08:47.494Z,4.78
2023-04-22T00:11:19.630Z,3.35
2023-04-22T00:13:51.848Z,2.90
2023-04-22T00:16:24.017Z,2.80
2023-04-22T00:18:56.295Z,2.52
2023-04-22T00:21:28.737Z,3.05
2023-04-22T00:24:00.800Z,2.37
2023-04-22T00:26:33.103Z,2.67
2023-04-22T00:29:05.600Z,3.05
2023-04-22T00:31:38.578Z,2.45
2023-04-22T00:34:10.861Z,2.58
2023-04-22T00:36:43.320Z,2.25
2023-04-22T00:39:16.778Z,2.47
2023-04-22T00:41:49.047Z,2.25
2023-04-22T00:44:21.644Z,2.25
2023-04-22T00:46:54.484Z,1.90
2023-04-22T00:49:28.512Z,2.58
2023-04-22T00:52:00.669Z,2.60
2023-04-22T00:54:33.140Z,2.15
2023-04-22T00:57:07.209Z,2.40
2023-04-22T00:59:39.740Z,2.37
2023-04-22T01:02:12.967Z,2.17
2023-04-22T01:04:45.957Z,2.12
2023-04-22T01:07:18.760Z,1.90
2023-04-22T01:09:51.227Z,2.10
2023-04-22T01:12:23.381Z,2.33
2023-04-22T01:14:55.965Z,2.65
2023-04-22T01:17:28.313Z,2.10
2023-04-22T01:20:00.819Z,2.00
2023-04-22T01:22:36.916Z,2.92
2023-04-22T01:25:10.483Z,2.20
2023-04-22T01:27:43.145Z,2.12
2023-04-22T01:30:15.506Z,2.02
2023-04-22T01:32:48.095Z,2.25
2023-04-22T01:35:20.332Z,1.67
2023-04-22T01:37:53.214Z,2.08
2023-04-22T01:40:27.601Z,2.12
2023-04-22T01:43:00.946Z,2.20
2023-04-22T01:45:33.778Z,2.52
2023-04-22T01:48:07.119Z,1.87
2023-04-22T01:50:39.775Z,2.87
2023-04-22T01:53:12.329Z,2.05
2023-04-22T01:55:45.448Z,2.47
2023-04-22T01:58:18.516Z,1.75
2023-04-22T02:00:50.778Z,2.70
2023-04-22T02:03:23.204Z,2.80
2023-04-22T02:05:55.310Z,2.30
2023-04-22T02:08:27.520Z,2.50
2023-04-22T02:11:01.237Z,2.80
2023-04-22T02:13:38.436Z,2.00
2023-04-22T02:16:12.880Z,1.80
2023-04-22T02:18:46.692Z,1.90
2023-04-22T02:21:19.082Z,2.37
2023-04-22T02:23:51.122Z,1.80
2023-04-22T02:26:23.882Z,1.82
2023-04-22T02:28:56.094Z,1.75
2023-04-22T02:31:30.612Z,1.50
2023-04-22T02:34:02.992Z,1.70
2023-04-22T02:36:35.323Z,1.90
2023-04-22T02:39:07.351Z,1.92
2023-04-22T02:41:40.515Z,1.85
2023-04-22T02:44:13.186Z,1.80
2023-04-22T02:46:45.412Z,1.90
2023-04-22T02:49:17.890Z,1.70
2023-04-22T02:51:50.144Z,3.30
2023-04-22T02:54:23.512Z,1.82
2023-04-22T02:56:55.667Z,2.17
2023-04-22T02:59:27.988Z,1.82
2023-04-22T03:02:00.649Z,2.05
2023-04-22T03:04:34.496Z,3.17
2023-04-22T03:07:06.604Z,1.70
2023-04-22T03:09:39.507Z,2.45
2023-04-22T03:12:12.097Z,2.90
2023-04-22T03:14:44.365Z,2.10
2023-04-22T03:17:16.899Z,1.70
2023-04-22T03:19:49.404Z,1.57
2023-04-22T03:22:22.005Z,2.30
2023-04-22T03:24:56.176Z,1.98
2023-04-22T03:27:28.402Z,2.08
2023-04-22T03:30:00.646Z,2.10
2023-04-22T03:32:35.114Z,2.35
2023-04-22T03:35:09.289Z,2.65
2023-04-22T03:37:41.754Z,2.35
2023-04-22T03:40:15.659Z,2.47
2023-04-22T03:42:47.700Z,2.90
2023-04-22T03:45:21.726Z,1.90
2023-04-22T03:47:58.917Z,2.52
2023-04-22T03:50:32.715Z,2.70
2023-04-22T03:53:05.191Z,2.47
2023-04-22T03:55:37.495Z,2.37
2023-04-22T03:58:10.940Z,2.00
2023-04-22T04:00:43.809Z,2.70
2023-04-22T04:03:17.805Z,2.37
2023-04-22T04:05:51.860Z,2.85
2023-04-22T04:08:25.382Z,2.58
2023-04-22T04:10:57.979Z,2.67
2023-04-22T04:13:32.530Z,3.20
2023-04-22T04:16:23.494Z,2.72
2023-04-22T04:18:57.280Z,2.42
2023-04-22T04:21:31.986Z,2.35
2023-04-22T04:24:05.340Z,2.98
2023-04-22T04:26:39.392Z,2.87
2023-04-22T04:29:24.165Z,2.10
2023-04-22T04:32:00.976Z,2.70
2023-04-22T04:34:34.500Z,2.50
2023-04-22T04:37:07.186Z,2.75
2023-04-22T04:39:44.691Z,5.03
2023-04-22T04:42:17.512Z,2.72
2023-04-22T04:44:51.826Z,2.15
2023-04-22T04:47:25.102Z,3.20
2023-04-22T04:49:59.449Z,2.67
2023-04-22T04:52:33.089Z,2.87
2023-04-22T04:55:06.436Z,2.50
2023-04-22T04:57:39.133Z,2.58
2023-04-22T05:00:11.460Z,2.98
2023-04-22T05:02:44.531Z,3.00
2023-04-22T05:05:18.044Z,2.65
2023-04-22T05:07:51.979Z,2.30
2023-04-22T05:10:25.598Z,2.62
2023-04-22T05:12:58.360Z,2.77
2023-04-22T05:15:31.103Z,3.00
2023-04-22T05:18:03.272Z,2.65
2023-04-22T05:20:36.670Z,2.65
2023-04-22T05:23:09.225Z,2.70
2023-04-22T05:25:41.718Z,2.70
2023-04-22T05:28:15.431Z,3.80
2023-04-22T05:30:52.913Z,2.40
2023-04-22T05:33:25.025Z,2.15
2023-04-22T05:35:57.660Z,2.10
2023-04-22T05:38:30.890Z,2.47
2023-04-22T05:41:03.345Z,2.80
2023-04-22T05:43:35.859Z,3.92
2023-04-22T05:46:09.911Z,3.30
2023-04-22T05:48:43.815Z,2.27
2023-04-22T05:53:48.771Z,2.08
2023-04-22T05:56:22.446Z,2.25
2023-04-22T05:58:55.074Z,2.25
2023-04-22T06:01:29.079Z,3.02
2023-04-22T06:04:05.781Z,2.30
2023-04-22T06:06:38.845Z,1.92
2023-04-22T06:09:11.009Z,1.82
2023-04-22T06:11:44.962Z,1.95
2023-04-22T06:14:17.341Z,1.90
2023-04-22T06:16:50.934Z,2.22
2023-04-22T06:19:22.902Z,2.20
2023-04-22T06:21:55.033Z,1.95
2023-04-22T06:24:28.162Z,2.05
2023-04-22T06:27:00.284Z,2.02
2023-04-22T06:29:33.592Z,1.10
2023-04-22T06:32:06.083Z,2.10
2023-04-22T06:34:38.959Z,1.82
2023-04-22T06:37:11.236Z,1.80
2023-04-22T06:39:44.528Z,1.95
2023-04-22T06:42:34.748Z,1.52
2023-04-22T06:45:26.741Z,1.20
2023-04-22T06:50:34.103Z,1.17
2023-04-22T06:53:06.767Z,1.40
2023-04-22T06:55:39.986Z,2.60
2023-04-22T06:58:12.434Z,2.10
2023-04-22T07:00:44.770Z,2.02
2023-04-22T07:03:18.284Z,1.60
2023-04-22T07:05:52.404Z,1.10
2023-04-22T07:08:24.856Z,1.00
2023-04-22T07:10:58.136Z,1.70
2023-04-22T07:13:41.418Z,1.50
2023-04-22T07:16:14.003Z,1.42
2023-04-22T07:18:46.173Z,1.22
2023-04-22T07:21:18.244Z,1.27
2023-04-22T07:23:50.381Z,1.55
2023-04-22T07:26:23.006Z,1.40
2023-04-22T07:28:55.636Z,1.42
2023-04-22T07:31:27.845Z,1.35
2023-04-22T07:34:01.324Z,2.02
2023-04-22T07:36:33.309Z,1.17
2023-04-22T07:39:06.021Z,1.15
2023-04-22T07:41:39.666Z,1.60
2023-04-22T07:44:13.529Z,1.25
2023-04-22T07:46:46.228Z,1.60
2023-04-22T07:49:20.089Z,1.47
2023-04-22T07:51:52.808Z,1.35
2023-04-22T07:54:25.678Z,1.52
2023-04-22T07:56:58.614Z,3.30
2023-04-22T07:59:31.857Z,1.10
2023-04-22T08:02:04.463Z,1.60
2023-04-22T08:04:37.581Z,1.05
2023-04-22T08:07:29.696Z,1.27
2023-04-22T08:12:17.169Z,1.10
2023-04-22T08:14:49.548Z,0.90
2023-04-22T08:17:23.358Z,1.20
2023-04-22T08:19:56.242Z,1.15
2023-04-22T08:22:28.915Z,1.20
2023-04-22T08:25:02.031Z,2.17
2023-04-22T08:27:34.652Z,1.27
2023-04-22T08:30:08.404Z,2.33
2023-04-22T08:32:40.685Z,1.80
2023-04-22T08:35:13.234Z,1.98
2023-04-22T08:37:45.455Z,1.70
2023-04-22T08:40:18.704Z,1.62
2023-04-22T08:42:52.559Z,1.10
2023-04-22T08:45:25.224Z,1.20
2023-04-22T08:47:58.381Z,0.90
2023-04-22T08:50:33.092Z,1.40
2023-04-22T08:53:05.428Z,1.05
2023-04-22T08:55:38.129Z,1.70
2023-04-22T08:58:12.091Z,1.82
2023-04-22T09:00:47.225Z,23.22
2023-04-22T09:03:20.774Z,1.10
2023-04-22T09:05:54.547Z,1.70
2023-04-22T09:08:27.757Z,0.90
2023-04-22T09:11:00.742Z,1.20
2023-04-22T09:13:34.368Z,1.55
2023-04-22T09:16:07.595Z,2.67
2023-04-22T09:18:46.071Z,1.27
2023-04-22T09:21:18.440Z,2.37
2023-04-22T09:23:52.877Z,4.62
2023-04-22T09:29:01.003Z,1.20
2023-04-22T09:31:34.872Z,1.87
2023-04-22T09:34:07.802Z,1.02
2023-04-22T09:36:40.843Z,1.17
2023-04-22T09:39:13.504Z,2.55
2023-04-22T09:41:46.224Z,1.02
2023-04-22T09:44:19.280Z,1.32
2023-04-22T09:46:51.711Z,1.30
2023-04-22T09:49:25.451Z,1.92
2023-04-22T09:51:58.984Z,1.37
2023-04-22T09:54:31.668Z,1.25
2023-04-22T09:57:06.057Z,1.25
2023-04-22T09:59:39.135Z,1.00
2023-04-22T10:02:11.666Z,0.95
2023-04-22T10:04:44.251Z,1.37
2023-04-22T10:07:18.022Z,1.75
2023-04-22T10:09:50.880Z,1.60
2023-04-22T10:12:32.971Z,2.72
2023-04-22T10:14:57.366Z,2.35
2023-04-22T10:17:35.538Z,1.20
2023-04-22T10:20:12.826Z,1.60
2023-04-22T10:22:45.703Z,0.90
2023-04-22T10:25:28.874Z,1.57
2023-04-22T10:28:12.225Z,4.90
2023-04-22T10:30:44.542Z,2.55
2023-04-22T10:33:26.614Z,1.40
2023-04-22T10:36:14.242Z,0.90
2023-04-22T10:38:58.521Z,1.32
2023-04-22T10:41:36.313Z,1.40
2023-04-22T10:44:10.002Z,3.83
2023-04-22T10:46:54.768Z,1.40
2023-04-22T10:49:29.720Z,0.88
2023-04-22T10:52:04.247Z,0.95
2023-04-22T10:54:47.592Z,1.98
2023-04-22T10:57:24.500Z,1.00
2023-04-22T11:00:01.990Z,1.42
2023-04-22T11:02:38.534Z,1.40
2023-04-22T11:05:25.837Z,1.05
2023-04-22T11:07:59.724Z,0.70
2023-04-22T11:10:44.679Z,0.90
2023-04-22T11:13:19.787Z,1.40
2023-04-22T11:15:54.485Z,0.93
2023-04-22T11:18:28.235Z,0.98
2023-04-22T11:21:08.883Z,1.72
2023-04-22T11:23:42.806Z,2.50
2023-04-22T11:26:15.642Z,1.50
2023-04-22T11:28:50.895Z,0.72
2023-04-22T11:31:23.108Z,1.37
2023-04-22T11:33:57.204Z,1.70
2023-04-22T11:36:29.608Z,1.00
2023-04-22T11:39:02.450Z,1.00
2023-04-22T11:41:35.436Z,2.77
2023-04-22T11:44:08.166Z,1.22
2023-04-22T11:46:40.739Z,0.98
2023-04-22T11:49:14.975Z,0.93
2023-04-22T11:51:59.475Z,0.95
2023-04-22T11:54:37.547Z,1.60
2023-04-22T11:57:13.304Z,1.30
2023-04-22T11:59:45.790Z,0.90
2023-04-22T12:02:19.291Z,0.80
2023-04-22T12:04:52.015Z,0.90
2023-04-22T12:07:24.562Z,1.40
2023-04-22T12:09:57.709Z,1.35
2023-04-22T12:12:30.750Z,1.55
2023-04-22T12:15:13.528Z,1.50
2023-04-22T12:17:46.968Z,1.00
2023-04-22T12:20:22.308Z,1.82
2023-04-22T12:22:54.885Z,1.42
2023-04-22T12:25:28.274Z,1.10
2023-04-22T12:28:01.304Z,0.90
2023-04-22T12:30:35.396Z,1.05
2023-04-22T12:33:07.628Z,1.10
2023-04-22T12:35:40.242Z,1.25
2023-04-22T12:38:13.870Z,1.62
2023-04-22T12:40:46.901Z,1.80
2023-04-22T12:43:20.186Z,1.25
2023-04-22T12:45:54.932Z,2.25
2023-04-22T12:48:27.514Z,1.60
2023-04-22T12:51:00.694Z,1.35
2023-04-22T12:53:33.328Z,1.57
2023-04-22T12:56:05.839Z,1.00
2023-04-22T12:58:39.045Z,1.07
2023-04-22T13:01:11.587Z,1.82
2023-04-22T13:03:44.406Z,1.45
2023-04-22T13:06:17.441Z,1.30
2023-04-22T13:08:51.822Z,1.82
2023-04-22T13:13:58.832Z,1.60
2023-04-22T13:16:31.758Z,1.75
2023-04-22T13:19:04.728Z,1.07
2023-04-22T13:21:37.294Z,1.35
2023-04-22T13:24:09.950Z,1.55
2023-04-22T13:26:42.533Z,1.30
2023-04-22T13:29:14.853Z,1.40
2023-04-22T13:31:47.122Z,2.47
2023-04-22T13:34:19.784Z,1.50
2023-04-22T13:36:52.348Z,2.70
2023-04-22T13:39:25.747Z,2.55
2023-04-22T13:41:58.115Z,1.80
2023-04-22T13:44:30.508Z,2.80
2023-04-22T13:47:02.981Z,2.02
2023-04-22T13:49:35.102Z,2.05
2023-04-22T13:52:07.142Z,0.90
2023-04-22T13:54:39.215Z,1.82
2023-04-22T13:57:12.205Z,4.62
2023-04-22T13:59:44.531Z,1.50
2023-04-22T14:02:17.779Z,1.37
2023-04-22T14:04:50.043Z,1.50
2023-04-22T14:07:22.777Z,1.57
2023-04-22T14:09:55.742Z,1.60
2023-04-22T14:12:28.339Z,1.02
2023-04-22T14:15:00.789Z,1.70
2023-04-22T14:17:35.166Z,2.65
2023-04-22T14:20:08.431Z,1.50
2023-04-22T14:22:40.670Z,1.22
2023-04-22T14:25:13.530Z,1.20
2023-04-22T14:27:46.638Z,1.60
2023-04-22T14:30:20.728Z,1.52
2023-04-22T14:32:53.225Z,2.65
2023-04-22T14:35:26.189Z,2.40
2023-04-22T14:37:58.680Z,2.72
2023-04-22T14:40:31.146Z,1.90
2023-04-22T14:43:05.781Z,1.60
2023-04-22T14:45:38.623Z,2.62
2023-04-22T14:48:11.447Z,1.35
2023-04-22T14:50:44.329Z,1.85
2023-04-22T14:53:16.458Z,2.20
2023-04-22T14:55:48.729Z,2.00
2023-04-22T14:58:20.822Z,2.17
2023-04-22T15:00:53.249Z,1.47
2023-04-22T15:03:25.576Z,3.12
2023-04-22T15:05:58.152Z,1.20
2023-04-22T15:08:30.519Z,1.30
2023-04-22T15:11:02.850Z,1.67
2023-04-22T15:13:36.392Z,1.87
2023-04-22T15:16:09.148Z,2.33
2023-04-22T15:18:42.758Z,1.95
2023-04-22T15:21:14.993Z,1.70
2023-04-22T15:23:47.771Z,2.27
2023-04-22T15:26:20.049Z,2.37
2023-04-22T15:28:52.321Z,1.57
2023-04-22T15:31:24.950Z,2.30
2023-04-22T15:33:57.078Z,2.02
2023-04-22T15:36:30.203Z,2.05
2023-04-22T15:39:03.233Z,1.42
2023-04-22T15:41:35.472Z,1.77
2023-04-22T15:44:08.773Z,1.30
2023-04-22T15:46:41.752Z,1.13
2023-04-22T15:49:15.095Z,1.65
2023-04-22T15:51:47.294Z,1.70
2023-04-22T15:54:19.595Z,1.60
2023-04-22T15:56:51.775Z,1.95
2023-04-22T15:59:24.258Z,2.20
2023-04-22T16:01:57.107Z,1.75
2023-04-22T16:04:29.701Z,1.20
2023-04-22T16:07:01.978Z,4.20
2023-04-22T16:09:34.377Z,1.47
2023-04-22T16:12:06.872Z,2.02
2023-04-22T16:14:38.963Z,2.33
2023-04-22T16:17:11.049Z,1.65
2023-04-22T16:19:43.609Z,1.90
2023-04-22T16:22:15.683Z,2.00
2023-04-22T16:24:47.636Z,2.25
2023-04-22T16:27:19.824Z,2.15
2023-04-22T16:29:52.649Z,4.17
2023-04-22T16:32:25.429Z,1.90
2023-04-22T16:34:57.802Z,1.82
2023-04-22T16:37:31.102Z,1.62
2023-04-22T16:40:04.981Z,1.65
2023-04-22T16:42:37.977Z,1.70
2023-04-22T16:45:10.791Z,2.10
2023-04-22T16:47:43.082Z,2.10
2023-04-22T16:50:15.695Z,2.22
2023-04-22T16:52:48.076Z,2.12
2023-04-22T16:55:21.297Z,2.35
2023-04-22T16:57:53.608Z,2.10
2023-04-22T17:00:26.212Z,1.75
2023-04-22T17:02:58.799Z,2.35
2023-04-22T17:05:31.431Z,2.17
2023-04-22T17:08:03.662Z,3.20
2023-04-22T17:10:37.370Z,3.10
2023-04-22T17:13:09.374Z,2.47
2023-04-22T17:15:41.983Z,3.80
2023-04-22T17:18:15.102Z,2.10
2023-04-22T17:20:49.190Z,5.27
2023-04-22T17:23:21.444Z,1.98
2023-04-22T17:25:53.905Z,2.40
2023-04-22T17:28:26.534Z,2.67
2023-04-22T17:30:58.760Z,2.72
2023-04-22T17:33:31.459Z,2.30
2023-04-22T17:36:04.250Z,2.72
2023-04-22T17:38:36.661Z,2.52
2023-04-22T17:41:09.255Z,3.12
2023-04-22T17:43:41.786Z,3.10
2023-04-22T17:46:14.063Z,2.70
2023-04-22T17:48:46.996Z,3.10
2023-04-22T17:51:19.520Z,2.95
2023-04-22T17:53:53.019Z,2.08
2023-04-22T17:56:26.790Z,3.55
2023-04-22T17:59:00.127Z,3.52
2023-04-22T18:01:32.852Z,3.87
2023-04-22T18:04:06.030Z,4.03
2023-04-22T18:06:39.977Z,3.87
2023-04-22T18:09:12.386Z,3.67
2023-04-22T18:11:44.722Z,3.00
2023-04-22T18:14:17.003Z,3.45
2023-04-22T18:16:49.172Z,4.00
2023-04-22T18:19:21.359Z,6.00
2023-04-22T18:22:00.115Z,5.22
2023-04-22T18:26:59.258Z,4.45
2023-04-22T18:29:33.520Z,4.65
2023-04-22T18:32:06.040Z,5.42
2023-04-22T18:34:38.792Z,5.25
2023-04-22T18:37:11.213Z,5.45
2023-04-22T18:39:43.773Z,5.20
2023-04-22T18:42:16.083Z,5.05
2023-04-22T18:44:48.502Z,5.53
2023-04-22T18:47:20.976Z,3.83
2023-04-22T18:49:53.119Z,4.33
2023-04-22T18:52:25.720Z,4.40
2023-04-22T18:54:57.775Z,5.25
2023-04-22T18:57:30.342Z,4.50
2023-04-22T19:00:03.157Z,5.20
2023-04-22T19:02:39.771Z,4.97
2023-04-22T19:05:11.381Z,4.28
2023-04-22T19:07:45.182Z,4.95
2023-04-22T19:10:17.838Z,4.83
2023-04-22T19:12:50.211Z,5.60
2023-04-22T19:15:22.216Z,4.67
2023-04-22T19:17:54.222Z,4.97
2023-04-22T19:20:26.495Z,5.28
2023-04-22T19:22:58.797Z,5.53
2023-04-22T19:25:31.798Z,5.15
2023-04-22T19:28:03.894Z,4.53
2023-04-22T19:30:36.194Z,5.20
2023-04-22T19:33:08.368Z,5.22
2023-04-22T19:35:40.347Z,5.20
2023-04-22T19:38:14.101Z,5.03
2023-04-22T19:40:46.377Z,6.00
2023-04-22T19:43:19.458Z,4.70
2023-04-22T19:45:51.862Z,4.83
2023-04-22T19:48:24.807Z,4.53
2023-04-22T19:50:57.883Z,4.67
2023-04-22T19:53:31.703Z,4.05
2023-04-22T19:56:04.747Z,4.87
2023-04-22T19:58:37.223Z,4.83
2023-04-22T20:01:09.691Z,5.65
2023-04-22T20:03:42.425Z,4.42
2023-04-22T20:06:15.597Z,4.60
2023-04-22T20:08:48.144Z,4.55
2023-04-22T20:11:21.701Z,4.47
2023-04-22T20:13:54.514Z,5.50
2023-04-22T20:16:28.167Z,5.67
2023-04-22T20:19:00.401Z,5.33
2023-04-22T20:21:33.137Z,5.50
2023-04-22T20:24:06.346Z,4.83
2023-04-22T20:26:39.099Z,5.10
2023-04-22T20:29:11.841Z,5.03
2023-04-22T20:31:44.036Z,5.22
2023-04-22T20:34:16.618Z,5.12
2023-04-22T20:36:49.739Z,5.35
2023-04-22T20:39:23.544Z,5.22
2023-04-22T20:41:59.525Z,5.03
2023-04-22T20:44:31.910Z,5.83
2023-04-22T20:47:04.161Z,6.08
2023-04-22T20:49:38.205Z,6.08
2023-04-22T20:52:11.556Z,5.20
2023-04-22T20:54:44.415Z,6.20
2023-04-22T20:57:16.771Z,6.17
2023-04-22T20:59:49.439Z,6.15
2023-04-22T21:02:22.787Z,5.97
2023-04-22T21:04:55.482Z,6.42
2023-04-22T21:07:30.858Z,6.60
2023-04-22T21:10:03.275Z,6.97
2023-04-22T21:12:36.011Z,5.85
2023-04-22T21:15:09.234Z,5.50
2023-04-22T21:17:44.809Z,6.33
2023-04-22T21:20:21.026Z,6.83
2023-04-22T21:22:55.197Z,6.50
2023-04-22T21:25:28.801Z,8.03
2023-04-22T21:28:01.379Z,7.30
2023-04-22T21:30:33.605Z,6.75
2023-04-22T21:33:05.852Z,5.20
2023-04-22T21:35:39.448Z,5.83
2023-04-22T21:38:11.724Z,5.40
2023-04-22T21:40:44.014Z,5.60
2023-04-22T21:43:16.028Z,5.10
2023-04-22T21:45:48.426Z,4.60
2023-04-22T21:48:21.218Z,5.70
2023-04-22T21:50:53.558Z,5.72
2023-04-22T21:53:25.814Z,5.92
2023-04-22T21:55:57.908Z,5.33
2023-04-22T21:58:29.954Z,5.50
2023-04-22T22:01:02.091Z,5.80
2023-04-22T22:03:34.991Z,5.80
2023-04-22T22:06:07.659Z,5.87
2023-04-22T22:08:40.840Z,5.05
2023-04-22T22:11:27.513Z,5.08
2023-04-22T22:13:48.430Z,5.15
2023-04-22T22:16:20.663Z,5.08
2023-04-22T22:18:52.825Z,5.00
2023-04-22T22:21:26.137Z,5.03
2023-04-22T22:23:58.169Z,5.75
2023-04-22T22:26:30.730Z,5.53
2023-04-22T22:29:03.402Z,5.70
2023-04-22T22:31:36.055Z,6.03
2023-04-22T22:34:08.175Z,5.17
2023-04-22T22:36:41.397Z,4.72
2023-04-22T22:39:15.449Z,4.50
2023-04-22T22:41:48.357Z,6.00
2023-04-22T22:44:20.795Z,4.50
2023-04-22T22:46:53.235Z,5.37
2023-04-22T22:49:25.504Z,5.33
2023-04-22T22:51:58.149Z,4.83
2023-04-22T22:54:30.374Z,5.60
2023-04-22T22:57:03.237Z,5.50
2023-04-22T22:59:36.510Z,5.40
2023-04-22T23:02:08.835Z,4.97
2023-04-22T23:04:42.290Z,4.87
2023-04-22T23:07:16.182Z,6.40
2023-04-22T23:09:48.201Z,5.92
2023-04-22T23:12:20.410Z,5.40
2023-04-22T23:14:52.538Z,5.80
2023-04-22T23:17:25.089Z,5.50
2023-04-22T23:19:57.361Z,5.58
2023-04-22T23:22:31.271Z,5.72
2023-04-22T23:25:04.358Z,4.92
2023-04-22T23:27:36.783Z,5.35
2023-04-22T23:30:09.767Z,5.05
2023-04-22T23:32:43.902Z,5.90
2023-04-22T23:35:17.036Z,6.17
2023-04-22T23:37:50.836Z,5.87
2023-04-22T23:40:23.202Z,5.78
2023-04-22T23:42:55.517Z,5.70
2023-04-22T23:45:27.661Z,6.30
2023-04-22T23:48:00.107Z,5.80
2023-04-22T23:50:32.227Z,5.72
2023-04-22T23:53:04.576Z,5.67
2023-04-22T23:55:37.411Z,5.08
2023-04-22T23:58:09.479Z,5.28
